Time;durP1;ratioP1;P1;durP2;ratioP2;P2;SDS_P1;SDS_P2;PMS_P1;PMS_P2;Temp;Humidity;BMP_temperature;BMP_pressure;BME280_temperature;BME280_humidity;BME280_pressure;Samples;Min_cycle;Max_cycle;Signal;HPM_P1;HPM_P2
2022/11/29 00:01:33;;;;;;;;;;;19.00;70.90;;;;;;4445823;32;20073;-85
2022/11/29 00:03:59;;;;;;;;;;;19.00;70.90;;;;;;4445720;32;20097;-85
2022/11/29 00:06:26;;;;;;;;;;;19.00;70.90;;;;;;4445809;32;20408;-85
2022/11/29 00:08:53;;;;;;;;;;;19.00;70.90;;;;;;4445617;32;20053;-86
2022/11/29 00:14:08;;;;;;;;;;;18.90;70.90;;;;;;4445694;32;19986;-85
2022/11/29 00:16:34;;;;;;;;;;;18.90;70.80;;;;;;4445300;32;20117;-85
2022/11/29 00:19:00;;;;;;;;;;;18.90;70.80;;;;;;4444183;32;19981;-85
2022/11/29 00:21:26;;;;;;;;;;;18.90;70.90;;;;;;4445889;32;19990;-85
2022/11/29 00:23:51;;;;;;;;;;;18.90;70.90;;;;;;4446071;32;19963;-85
2022/11/29 00:26:17;;;;;;;;;;;18.90;70.90;;;;;;4445512;32;19966;-85
2022/11/29 00:28:44;;;;;;;;;;;18.90;70.90;;;;;;4445644;32;19989;-85
2022/11/29 00:31:17;;;;;;;;;;;18.90;71.80;;;;;;4445535;32;19970;-85
2022/11/29 00:33:42;;;;;;;;;;;18.90;71.00;;;;;;4445526;32;20026;-85
2022/11/29 00:36:08;;;;;;;;;;;18.90;71.00;;;;;;4445436;32;20297;-85
2022/11/29 00:38:34;;;;;;;;;;;18.90;71.00;;;;;;4445482;32;20383;-85
2022/11/29 00:41:00;;;;;;;;;;;18.80;70.90;;;;;;4445107;32;19981;-85
2022/11/29 00:43:25;;;;;;;;;;;18.80;70.90;;;;;;4445460;32;20104;-85
2022/11/29 00:45:51;;;;;;;;;;;18.80;71.00;;;;;;4445390;32;19978;-85
2022/11/29 00:48:17;;;;;;;;;;;18.80;71.00;;;;;;4445383;32;19967;-86
2022/11/29 00:50:42;;;;;;;;;;;18.80;71.00;;;;;;4445428;32;20014;-85
2022/11/29 00:53:08;;;;;;;;;;;18.80;71.00;;;;;;4445281;32;19998;-86
2022/11/29 00:55:34;;;;;;;;;;;18.80;70.90;;;;;;4445278;32;20392;-85
2022/11/29 00:57:59;;;;;;;;;;;18.80;70.90;;;;;;4430996;32;19971;-85
2022/11/29 01:00:25;;;;;;;;;;;18.80;70.90;;;;;;4445747;32;19981;-85
2022/11/29 01:02:51;;;;;;;;;;;18.80;71.00;;;;;;4445422;32;20316;-86
2022/11/29 01:05:16;;;;;;;;;;;18.70;71.00;;;;;;4445634;32;20010;-85
2022/11/29 01:07:42;;;;;;;;;;;18.70;70.90;;;;;;4445365;32;20356;-85
2022/11/29 01:10:08;;;;;;;;;;;18.70;71.00;;;;;;4444874;32;19963;-85
2022/11/29 01:12:35;;;;;;;;;;;18.70;71.00;;;;;;4444945;32;19986;-85
2022/11/29 01:15:01;;;;;;;;;;;18.70;70.90;;;;;;4445723;32;20037;-84
2022/11/29 01:17:27;;;;;;;;;;;18.70;71.80;;;;;;4448432;32;19970;-85
2022/11/29 01:19:52;;;;;;;;;;;18.70;70.90;;;;;;4448045;32;20447;-85
2022/11/29 01:22:18;;;;;;;;;;;18.70;70.90;;;;;;4448162;32;20326;-85
2022/11/29 01:24:44;;;;;;;;;;;18.70;70.90;;;;;;4448111;32;19966;-86
2022/11/29 01:27:09;;;;;;;;;;;18.70;71.00;;;;;;4447878;32;19982;-86
2022/11/29 01:29:36;;;;;;;;;;;18.70;70.90;;;;;;4447895;32;20392;-86
2022/11/29 01:32:02;;;;;;;;;;;18.70;70.90;;;;;;4448242;32;19971;-86
2022/11/29 01:34:27;;;;;;;;;;;18.70;71.00;;;;;;4449101;32;20369;-85
2022/11/29 01:36:53;;;;;;;;;;;18.60;70.90;;;;;;4448459;32;20007;-86
2022/11/29 01:39:18;;;;;;;;;;;18.60;70.90;;;;;;4449268;32;19970;-85
2022/11/29 01:41:44;;;;;;;;;;;18.60;70.90;;;;;;4449711;32;19974;-86
2022/11/29 01:44:10;;;;;;;;;;;18.60;70.90;;;;;;4435086;32;19967;-86
2022/11/29 01:46:37;;;;;;;;;;;18.60;70.90;;;;;;4449212;32;19971;-86
2022/11/29 01:49:06;;;;;;;;;;;18.60;71.00;;;;;;4448520;32;20456;-84
2022/11/29 01:51:33;;;;;;;;;;;18.60;70.90;;;;;;4448720;32;20109;-85
2022/11/29 01:53:58;;;;;;;;;;;18.60;70.90;;;;;;4449133;32;20015;-86
2022/11/29 01:56:24;;;;;;;;;;;18.60;70.90;;;;;;4449090;32;20381;-86
2022/11/29 01:58:50;;;;;;;;;;;18.60;70.90;;;;;;4449041;32;19982;-86
2022/11/29 02:01:16;;;;;;;;;;;18.60;71.00;;;;;;4448382;32;19993;-85
2022/11/29 02:03:41;;;;;;;;;;;18.50;70.90;;;;;;4448339;32;20093;-85
2022/11/29 02:06:07;;;;;;;;;;;18.60;70.80;;;;;;4448546;32;20010;-85
2022/11/29 02:08:41;;;;;;;;;;;18.50;70.80;;;;;;4449091;32;20010;-85
2022/11/29 02:11:25;;;;;;;;;;;18.50;70.80;;;;;;4448975;32;20026;-85
2022/11/29 02:13:54;;;;;;;;;;;18.50;70.80;;;;;;4448591;32;19989;-86
2022/11/29 02:16:38;;;;;;;;;;;18.50;70.90;;;;;;4447933;32;20092;-86
2022/11/29 02:19:22;;;;;;;;;;;18.50;70.90;;;;;;4448175;32;20005;-85
2022/11/29 02:21:58;;;;;;;;;;;18.50;70.80;;;;;;4448484;32;20446;-85
2022/11/29 02:24:23;;;;;;;;;;;18.50;70.80;;;;;;4448726;32;20200;-85
2022/11/29 02:26:52;;;;;;;;;;;18.50;70.90;;;;;;4448043;32;19982;-85
2022/11/29 02:29:27;;;;;;;;;;;18.50;70.80;;;;;;4448235;32;19966;-86
2022/11/29 02:31:56;;;;;;;;;;;18.50;70.80;;;;;;4447148;32;20029;-86
2022/11/29 02:34:36;;;;;;;;;;;18.50;70.80;;;;;;4447152;32;20172;-86
2022/11/29 02:37:14;;;;;;;;;;;18.50;70.80;;;;;;4446890;32;19978;-86
2022/11/29 02:39:45;;;;;;;;;;;18.40;70.80;;;;;;4447207;32;19978;-86
2022/11/29 02:42:11;;;;;;;;;;;18.40;70.80;;;;;;4447203;32;19986;-86
2022/11/29 02:44:48;;;;;;;;;;;18.40;70.70;;;;;;4447279;32;19963;-86
2022/11/29 02:47:32;;;;;;;;;;;18.40;70.70;;;;;;4447197;32;20448;-86
2022/11/29 02:50:13;;;;;;;;;;;18.40;70.70;;;;;;4446925;32;19974;-85
2022/11/29 02:52:44;;;;;;;;;;;18.40;70.80;;;;;;4446743;32;19966;-85
2022/11/29 02:55:10;;;;;;;;;;;18.40;70.70;;;;;;4432722;32;19986;-86
2022/11/29 02:57:38;;;;;;;;;;;18.40;70.70;;;;;;4446284;32;20128;-86
2022/11/29 03:00:16;;;;;;;;;;;18.40;70.70;;;;;;4446805;32;20297;-86
2022/11/29 03:02:51;;;;;;;;;;;18.40;70.80;;;;;;4447084;32;19983;-85
2022/11/29 03:05:20;;;;;;;;;;;18.40;70.80;;;;;;4446558;32;20060;-86
2022/11/29 03:08:18;;;;;;;;;;;18.40;70.80;;;;;;4446778;32;20376;-85
2022/11/29 03:10:46;;;;;;;;;;;18.40;70.80;;;;;;4420151;32;20495;-85
2022/11/29 03:13:19;;;;;;;;;;;18.40;70.90;;;;;;4446541;32;20043;-86
2022/11/29 03:16:01;;;;;;;;;;;18.40;70.90;;;;;;4446635;32;19989;-85
2022/11/29 03:18:45;;;;;;;;;;;18.40;70.90;;;;;;4446527;32;20061;-86
2022/11/29 03:21:13;;;;;;;;;;;18.40;71.80;;;;;;4446544;32;19986;-86
2022/11/29 03:23:45;;;;;;;;;;;18.30;70.90;;;;;;4446251;32;20187;-86
2022/11/29 03:26:44;;;;;;;;;;;18.30;70.90;;;;;;4446366;32;20335;-86
2022/11/29 03:29:18;;;;;;;;;;;18.30;70.90;;;;;;4419872;32;19990;-86
2022/11/29 03:31:53;;;;;;;;;;;18.30;70.90;;;;;;4446308;32;19966;-86
2022/11/29 03:34:20;;;;;;;;;;;18.30;71.00;;;;;;4446238;32;19974;-85
2022/11/29 03:37:04;;;;;;;;;;;18.30;70.90;;;;;;4445985;32;19982;-86
2022/11/29 03:39:37;;;;;;;;;;;18.30;70.90;;;;;;4445922;32;19974;-86
2022/11/29 03:42:07;;;;;;;;;;;18.30;71.00;;;;;;4432343;32;20479;-86
2022/11/29 03:44:36;;;;;;;;;;;18.30;71.00;;;;;;4446123;32;20159;-86
2022/11/29 03:47:17;;;;;;;;;;;18.30;71.00;;;;;;4445815;32;19990;-86
2022/11/29 03:49:58;;;;;;;;;;;18.30;70.90;;;;;;4431740;32;19974;-85
2022/11/29 03:52:42;;;;;;;;;;;18.20;70.90;;;;;;4432262;32;20123;-86
2022/11/29 03:55:20;;;;;;;;;;;18.20;70.90;;;;;;4445983;32;19966;-86
2022/11/29 03:58:01;;;;;;;;;;;18.20;70.90;;;;;;4445565;32;19985;-85
2022/11/29 04:00:33;;;;;;;;;;;18.20;70.90;;;;;;4446012;32;20403;-86
2022/11/29 04:03:05;;;;;;;;;;;18.20;70.90;;;;;;4446153;32;19989;-86
2022/11/29 04:05:39;;;;;;;;;;;18.20;70.90;;;;;;4445970;32;20036;-86
2022/11/29 04:08:44;;;;;;;;;;;18.20;71.00;;;;;;4431826;32;19978;-85
2022/11/29 04:11:29;;;;;;;;;;;18.20;70.90;;;;;;4398116;32;20433;-86
2022/11/29 04:13:54;;;;;;;;;;;18.20;70.90;;;;;;4398052;32;20109;-86
2022/11/29 04:16:30;;;;;;;;;;;18.20;71.00;;;;;;4426256;32;20387;-86
2022/11/29 04:19:14;;;;;;;;;;;18.20;71.00;;;;;;4445689;32;20121;-86
2022/11/29 04:21:43;;;;;;;;;;;18.20;71.80;;;;;;4445734;32;19981;-85
2022/11/29 04:24:21;;;;;;;;;;;18.20;71.00;;;;;;4445779;32;20055;-86
2022/11/29 04:26:54;;;;;;;;;;;18.20;71.00;;;;;;4445557;32;20006;-86
2022/11/29 04:29:27;;;;;;;;;;;18.20;71.00;;;;;;4446154;32;20005;-85
2022/11/29 04:32:01;;;;;;;;;;;18.20;71.00;;;;;;4446067;32;20101;-86
2022/11/29 04:34:46;;;;;;;;;;;18.10;71.80;;;;;;4446019;32;19982;-86
2022/11/29 04:37:39;;;;;;;;;;;18.10;71.00;;;;;;4446028;32;19993;-86
2022/11/29 04:40:04;;;;;;;;;;;18.10;71.00;;;;;;4446095;32;19975;-86
2022/11/29 04:42:49;;;;;;;;;;;18.10;70.90;;;;;;4445677;32;19978;-86
2022/11/29 04:45:14;;;;;;;;;;;18.10;71.00;;;;;;4431867;32;19982;-86
2022/11/29 04:47:54;;;;;;;;;;;18.10;70.90;;;;;;4445660;32;19981;-85
2022/11/29 04:50:19;;;;;;;;;;;18.10;70.90;;;;;;4446718;32;20061;-85
2022/11/29 04:53:03;;;;;;;;;;;18.10;70.90;;;;;;4448744;32;20299;-85
2022/11/29 04:55:43;;;;;;;;;;;18.10;71.00;;;;;;4448577;32;19978;-85
2022/11/29 04:58:35;;;;;;;;;;;18.10;71.00;;;;;;4448348;32;20112;-85
2022/11/29 05:01:11;;;;;;;;;;;18.10;70.90;;;;;;4446305;32;20450;-85
2022/11/29 05:03:39;;;;;;;;;;;18.10;70.90;;;;;;4434613;32;19979;-86
2022/11/29 05:06:28;;;;;;;;;;;18.10;70.90;;;;;;4448454;32;20502;-85
2022/11/29 05:08:54;;;;;;;;;;;18.10;71.00;;;;;;4442146;32;20005;-85
2022/11/29 05:11:29;;;;;;;;;;;18.00;71.00;;;;;;4448459;32;19970;-85
2022/11/29 05:14:01;;;;;;;;;;;18.00;70.90;;;;;;4448407;32;19994;-85
2022/11/29 05:16:45;;;;;;;;;;;18.00;70.90;;;;;;4448447;32;20414;-85
2022/11/29 05:19:17;;;;;;;;;;;18.00;70.90;;;;;;4434410;32;19986;-85
2022/11/29 05:21:50;;;;;;;;;;;18.00;70.90;;;;;;4448119;32;19983;-86
2022/11/29 05:24:15;;;;;;;;;;;18.00;70.90;;;;;;4448260;32;20030;-85
2022/11/29 05:26:50;;;;;;;;;;;18.00;71.00;;;;;;4447887;32;20080;-85
2022/11/29 05:29:28;;;;;;;;;;;18.00;70.90;;;;;;4448152;32;19978;-85
2022/11/29 05:32:09;;;;;;;;;;;18.00;70.90;;;;;;4448164;32;20026;-85
2022/11/29 05:34:35;;;;;;;;;;;18.00;71.00;;;;;;4448439;32;19986;-85
2022/11/29 05:37:04;;;;;;;;;;;18.00;70.90;;;;;;4448098;32;19981;-85
2022/11/29 05:39:34;;;;;;;;;;;18.00;70.90;;;;;;4448037;32;20160;-85
2022/11/29 05:42:15;;;;;;;;;;;18.00;71.00;;;;;;4447994;32;19982;-85
2022/11/29 05:44:44;;;;;;;;;;;18.00;71.00;;;;;;4447911;32;19971;-85
2022/11/29 05:47:13;;;;;;;;;;;17.90;70.90;;;;;;4448168;32;19989;-85
2022/11/29 05:49:48;;;;;;;;;;;18.00;71.00;;;;;;4447866;32;20117;-85
2022/11/29 05:52:28;;;;;;;;;;;18.00;71.00;;;;;;4448088;32;20112;-85
2022/11/29 05:55:13;;;;;;;;;;;17.90;70.90;;;;;;4447743;32;20029;-85
2022/11/29 05:57:41;;;;;;;;;;;17.90;70.90;;;;;;4447614;32;19993;-86
2022/11/29 06:00:11;;;;;;;;;;;17.90;70.90;;;;;;4447850;32;20389;-85
2022/11/29 06:02:56;;;;;;;;;;;17.90;70.90;;;;;;4446828;32;19979;-85
2022/11/29 06:05:37;;;;;;;;;;;17.90;70.90;;;;;;4447824;32;19989;-85
2022/11/29 06:08:17;;;;;;;;;;;17.90;71.00;;;;;;4447681;32;19970;-85
2022/11/29 06:10:51;;;;;;;;;;;17.90;70.90;;;;;;4447845;32;19993;-85
2022/11/29 06:13:28;;;;;;;;;;;17.90;71.00;;;;;;4447571;32;19986;-86
2022/11/29 06:16:03;;;;;;;;;;;17.90;70.90;;;;;;4446486;32;20018;-86
2022/11/29 06:18:35;;;;;;;;;;;17.90;71.00;;;;;;4447703;32;20056;-86
2022/11/29 06:21:06;;;;;;;;;;;17.90;71.00;;;;;;4447368;32;20506;-85
2022/11/29 06:23:47;;;;;;;;;;;17.90;70.90;;;;;;4447490;32;20077;-85
2022/11/29 06:26:38;;;;;;;;;;;17.80;70.90;;;;;;4447443;32;20400;-85
2022/11/29 06:29:22;;;;;;;;;;;17.80;70.90;;;;;;4447439;32;20100;-86
2022/11/29 06:31:53;;;;;;;;;;;17.80;70.90;;;;;;4447286;32;19984;-85
2022/11/29 06:34:35;;;;;;;;;;;17.80;71.00;;;;;;4447135;32;19982;-85
2022/11/29 06:37:14;;;;;;;;;;;17.80;71.00;;;;;;4447060;32;19975;-86
2022/11/29 06:39:40;;;;;;;;;;;17.80;71.00;;;;;;4447513;32;20315;-85
2022/11/29 06:42:06;;;;;;;;;;;17.80;71.00;;;;;;4446933;32;19966;-86
2022/11/29 06:44:32;;;;;;;;;;;17.80;71.00;;;;;;4447334;32;19962;-86
2022/11/29 06:46:57;;;;;;;;;;;17.80;71.00;;;;;;4447073;32;20379;-86
2022/11/29 06:49:23;;;;;;;;;;;17.80;71.00;;;;;;4447002;32;20080;-86
2022/11/29 06:52:01;;;;;;;;;;;17.80;71.00;;;;;;4446821;32;19977;-86
2022/11/29 06:54:45;;;;;;;;;;;17.80;71.00;;;;;;4446852;32;20029;-87
2022/11/29 06:57:29;;;;;;;;;;;17.80;71.00;;;;;;4446449;32;20052;-85
2022/11/29 06:59:57;;;;;;;;;;;17.80;71.00;;;;;;4447199;32;20357;-85
2022/11/29 07:02:42;;;;;;;;;;;17.80;71.00;;;;;;4446616;32;19987;-87
2022/11/29 07:05:07;;;;;;;;;;;17.80;71.00;;;;;;4447026;32;19989;-86
2022/11/29 07:07:34;;;;;;;;;;;17.80;71.00;;;;;;4446751;32;20049;-87
2022/11/29 07:10:00;;;;;;;;;;;17.80;71.00;;;;;;4446718;32;20185;-86
2022/11/29 07:12:26;;;;;;;;;;;17.70;71.80;;;;;;4446899;32;19990;-87
2022/11/29 07:14:52;;;;;;;;;;;17.70;70.90;;;;;;4446052;32;20301;-86
2022/11/29 07:17:22;;;;;;;;;;;17.70;70.90;;;;;;4446819;32;19975;-87
2022/11/29 07:19:56;;;;;;;;;;;17.70;70.90;;;;;;4446386;32;19971;-87
2022/11/29 07:22:45;;;;;;;;;;;17.70;70.90;;;;;;4446810;32;19979;-86
2022/11/29 07:25:16;;;;;;;;;;;17.70;70.90;;;;;;4424186;32;20327;-87
2022/11/29 07:27:45;;;;;;;;;;;17.70;70.90;;;;;;4446402;32;20005;-86
2022/11/29 07:30:13;;;;;;;;;;;17.70;71.00;;;;;;4446102;32;19979;-86
2022/11/29 07:32:41;;;;;;;;;;;17.70;71.00;;;;;;4446582;32;20115;-85
2022/11/29 07:35:13;;;;;;;;;;;17.70;70.90;;;;;;4446014;32;19974;-87
2022/11/29 07:37:56;;;;;;;;;;;17.70;70.90;;;;;;4446658;32;19986;-85
2022/11/29 07:40:42;;;;;;;;;;;17.70;70.90;;;;;;4446355;32;20601;-86
2022/11/29 07:43:15;;;;;;;;;;;17.70;71.10;;;;;;4437672;32;19985;-85
2022/11/29 07:45:41;;;;;;;;;;;17.70;71.10;;;;;;4446429;32;19990;-85
2022/11/29 07:48:09;;;;;;;;;;;17.80;71.20;;;;;;4446139;32;19989;-87
2022/11/29 07:50:35;;;;;;;;;;;17.90;70.60;;;;;;4446060;32;19975;-87
2022/11/29 07:53:01;;;;;;;;;;;18.00;70.40;;;;;;4445033;32;20452;-85
2022/11/29 07:55:28;;;;;;;;;;;18.10;70.20;;;;;;4446325;32;19981;-85
2022/11/29 07:57:54;;;;;;;;;;;18.20;69.90;;;;;;4446057;32;19992;-85
2022/11/29 08:00:20;;;;;;;;;;;18.30;69.60;;;;;;4446380;32;20295;-85
2022/11/29 08:02:47;;;;;;;;;;;18.40;69.20;;;;;;4445071;32;20331;-85
2022/11/29 08:05:12;;;;;;;;;;;18.60;69.10;;;;;;4445948;32;19974;-85
2022/11/29 08:07:39;;;;;;;;;;;18.70;68.70;;;;;;4445928;32;19963;-85
2022/11/29 08:10:06;;;;;;;;;;;18.80;68.50;;;;;;4445938;32;20052;-85
2022/11/29 08:12:32;;;;;;;;;;;18.80;68.30;;;;;;4445941;32;20202;-85
2022/11/29 08:14:57;;;;;;;;;;;18.90;68.20;;;;;;4445484;32;20495;-85
2022/11/29 08:17:24;;;;;;;;;;;18.90;68.10;;;;;;4445877;32;19966;-85
2022/11/29 08:19:50;;;;;;;;;;;19.00;68.20;;;;;;4445563;32;19971;-83
2022/11/29 08:22:18;;;;;;;;;;;18.90;68.20;;;;;;4445959;32;20316;-85
2022/11/29 08:24:43;;;;;;;;;;;18.90;68.20;;;;;;4445291;32;19976;-84
2022/11/29 08:27:09;;;;;;;;;;;18.90;68.30;;;;;;4445606;32;20185;-85
2022/11/29 08:29:35;;;;;;;;;;;18.90;68.30;;;;;;4445742;32;20010;-85
2022/11/29 08:32:01;;;;;;;;;;;19.00;68.30;;;;;;4446021;32;20184;-86
2022/11/29 08:34:26;;;;;;;;;;;19.00;68.30;;;;;;4445483;32;19981;-86
2022/11/29 08:36:53;;;;;;;;;;;19.00;68.40;;;;;;4445480;32;19970;-86
2022/11/29 08:39:20;;;;;;;;;;;19.00;68.40;;;;;;4445452;32;19978;-85
2022/11/29 08:41:47;;;;;;;;;;;19.00;68.50;;;;;;4445744;32;19993;-85
2022/11/29 08:44:13;;;;;;;;;;;19.10;68.60;;;;;;4445723;32;20022;-84
2022/11/29 08:49:23;;;;;;;;;;;19.10;68.60;;;;;;4445948;32;19975;-85
2022/11/29 08:51:50;;;;;;;;;;;19.10;68.70;;;;;;4445501;32;20051;-84
2022/11/29 08:54:15;;;;;;;;;;;19.10;68.60;;;;;;4445481;32;19982;-83
2022/11/29 08:56:41;;;;;;;;;;;19.10;68.70;;;;;;4445047;32;20300;-85
2022/11/29 08:59:07;;;;;;;;;;;19.10;68.60;;;;;;4445608;32;20017;-84
2022/11/29 09:01:32;;;;;;;;;;;19.10;68.60;;;;;;4445453;32;19959;-84
2022/11/29 09:03:58;;;;;;;;;;;19.10;68.70;;;;;;4445281;32;19963;-82
2022/11/29 09:06:24;;;;;;;;;;;19.20;68.80;;;;;;4431399;32;20072;-84
2022/11/29 09:08:50;;;;;;;;;;;19.10;68.80;;;;;;4445736;32;20024;-83
2022/11/29 09:11:18;;;;;;;;;;;19.20;68.90;;;;;;4444209;32;20359;-84
2022/11/29 09:13:45;;;;;;;;;;;19.20;68.90;;;;;;4445268;32;19982;-84
2022/11/29 09:16:12;;;;;;;;;;;19.20;68.90;;;;;;4445472;32;20026;-84
2022/11/29 09:18:39;;;;;;;;;;;19.20;68.90;;;;;;4445152;32;19974;-85
2022/11/29 09:21:05;;;;;;;;;;;19.20;68.90;;;;;;4445270;32;20002;-81
2022/11/29 09:23:31;;;;;;;;;;;19.20;68.90;;;;;;4445325;32;19989;-83
2022/11/29 09:25:57;;;;;;;;;;;19.20;68.90;;;;;;4431611;32;19983;-83
2022/11/29 09:28:23;;;;;;;;;;;19.20;68.80;;;;;;4445290;32;19992;-85
2022/11/29 09:30:49;;;;;;;;;;;19.10;68.80;;;;;;4445297;32;19966;-81
2022/11/29 09:33:15;;;;;;;;;;;19.10;68.80;;;;;;4445283;32;20014;-83
2022/11/29 09:35:41;;;;;;;;;;;19.10;68.80;;;;;;4445156;32;20064;-80
2022/11/29 09:38:09;;;;;;;;;;;19.20;68.90;;;;;;4448071;32;20060;-79
2022/11/29 09:40:45;;;;;;;;;;;19.20;69.80;;;;;;4447996;32;19986;-77
2022/11/29 09:43:16;;;;;;;;;;;19.10;68.90;;;;;;4447929;32;19978;-74
2022/11/29 09:45:46;;;;;;;;;;;19.10;68.90;;;;;;4447735;32;19992;-81
2022/11/29 09:48:27;;;;;;;;;;;19.10;69.00;;;;;;4447355;32;20473;-87
2022/11/29 09:51:02;;;;;;;;;;;19.10;69.00;;;;;;4447719;32;20017;-85
2022/11/29 09:53:46;;;;;;;;;;;19.10;69.00;;;;;;4448055;32;20305;-84
2022/11/29 09:56:15;;;;;;;;;;;19.10;68.90;;;;;;4446198;32;20092;-84
2022/11/29 09:58:45;;;;;;;;;;;19.10;68.90;;;;;;4447574;32;19974;-83
2022/11/29 10:01:16;;;;;;;;;;;19.10;69.00;;;;;;4447735;32;19986;-81
2022/11/29 10:03:44;;;;;;;;;;;19.10;68.90;;;;;;4447884;32;19993;-85
2022/11/29 10:06:29;;;;;;;;;;;19.10;68.90;;;;;;4447785;32;19979;-88
2022/11/29 10:09:04;;;;;;;;;;;19.10;68.80;;;;;;4447850;32;20132;-82
2022/11/29 10:11:33;;;;;;;;;;;19.20;68.90;;;;;;4433653;32;19975;-83
2022/11/29 10:14:08;;;;;;;;;;;19.20;68.80;;;;;;4447720;32;20330;-88
2022/11/29 10:16:41;;;;;;;;;;;19.20;68.80;;;;;;4433862;32;20380;-85
2022/11/29 10:19:19;;;;;;;;;;;19.20;68.70;;;;;;4447299;32;19967;-86
2022/11/29 10:21:52;;;;;;;;;;;19.20;68.70;;;;;;4447466;32;20061;-79
2022/11/29 10:24:19;;;;;;;;;;;19.20;68.60;;;;;;4433573;32;19982;-82
2022/11/29 10:26:45;;;;;;;;;;;19.30;68.70;;;;;;4447190;32;20018;-79
2022/11/29 10:29:14;;;;;;;;;;;19.20;68.60;;;;;;4447548;32;20064;-84
2022/11/29 10:31:42;;;;;;;;;;;19.30;68.70;;;;;;4447085;32;19990;-82
2022/11/29 10:34:19;;;;;;;;;;;19.20;68.60;;;;;;4447501;32;19971;-82
2022/11/29 10:37:03;;;;;;;;;;;19.20;68.60;;;;;;4446962;32;20026;-83
2022/11/29 10:39:35;;;;;;;;;;;19.30;68.60;;;;;;4447261;32;19986;-81
2022/11/29 10:42:02;;;;;;;;;;;19.20;68.60;;;;;;4447493;32;20400;-81
2022/11/29 10:44:30;;;;;;;;;;;19.20;68.60;;;;;;4446920;32;19985;-82
2022/11/29 10:46:57;;;;;;;;;;;19.30;68.70;;;;;;4447060;32;20092;-83
2022/11/29 10:49:26;;;;;;;;;;;19.30;68.70;;;;;;4446206;32;20059;-81
2022/11/29 10:51:51;;;;;;;;;;;19.20;68.60;;;;;;4447216;32;19986;-81
2022/11/29 10:54:24;;;;;;;;;;;19.20;68.60;;;;;;4447167;32;20045;-81
2022/11/29 10:56:50;;;;;;;;;;;19.20;68.60;;;;;;4432461;32;19982;-78
2022/11/29 10:59:20;;;;;;;;;;;19.30;68.60;;;;;;4446598;32;19991;-81
2022/11/29 11:01:46;;;;;;;;;;;19.30;68.70;;;;;;4446595;32;19978;-81
2022/11/29 11:04:48;;;;;;;;;;;19.30;68.70;;;;;;4446848;32;19959;-81
2022/11/29 11:07:27;;;;;;;;;;;19.30;68.70;;;;;;4398994;32;20440;-82
2022/11/29 11:09:54;;;;;;;;;;;19.30;68.70;;;;;;4427073;32;19971;-81
2022/11/29 11:12:28;;;;;;;;;;;19.30;68.70;;;;;;4446483;32;20060;-83
2022/11/29 11:15:12;;;;;;;;;;;19.30;68.70;;;;;;4446708;32;20446;-83
2022/11/29 11:17:41;;;;;;;;;;;19.30;68.70;;;;;;4446485;32;20388;-82
2022/11/29 11:20:19;;;;;;;;;;;19.30;68.70;;;;;;4446719;32;20101;-81
2022/11/29 11:23:02;;;;;;;;;;;19.30;68.70;;;;;;4446018;32;20007;-83
2022/11/29 11:25:29;;;;;;;;;;;19.30;68.70;;;;;;4446326;32;19990;-82
2022/11/29 11:27:56;;;;;;;;;;;19.30;68.70;;;;;;4446096;32;20010;-81
2022/11/29 11:30:23;;;;;;;;;;;19.40;68.60;;;;;;4446531;32;19986;-81
2022/11/29 11:33:05;;;;;;;;;;;19.50;68.50;;;;;;4446344;32;19990;-81
2022/11/29 11:35:31;;;;;;;;;;;19.50;68.40;;;;;;4446120;32;19975;-82
2022/11/29 11:37:56;;;;;;;;;;;19.60;68.20;;;;;;4446151;32;19990;-81
2022/11/29 11:40:30;;;;;;;;;;;19.70;68.00;;;;;;4445924;32;20029;-79
2022/11/29 11:42:57;;;;;;;;;;;19.80;67.90;;;;;;4446027;32;19978;-83
2022/11/29 11:45:30;;;;;;;;;;;19.90;67.70;;;;;;4446384;32;19979;-82
2022/11/29 11:48:00;;;;;;;;;;;19.90;67.50;;;;;;4446028;32;19998;-84
2022/11/29 11:50:36;;;;;;;;;;;20.00;67.40;;;;;;4432296;32;20115;-86
2022/11/29 11:53:25;;;;;;;;;;;20.00;67.20;;;;;;4445921;32;20112;-84
2022/11/29 11:55:56;;;;;;;;;;;20.10;67.20;;;;;;4439596;32;20060;-86
2022/11/29 11:58:23;;;;;;;;;;;20.10;67.10;;;;;;4445991;32;19986;-86
2022/11/29 12:00:50;;;;;;;;;;;20.10;67.00;;;;;;4445184;32;19986;-85
2022/11/29 12:03:23;;;;;;;;;;;20.20;67.00;;;;;;4446133;32;19982;-85
2022/11/29 12:05:50;;;;;;;;;;;20.10;66.90;;;;;;4445948;32;20391;-82
2022/11/29 12:08:16;;;;;;;;;;;20.10;66.90;;;;;;4445623;32;20026;-81
2022/11/29 12:10:43;;;;;;;;;;;20.10;66.70;;;;;;4445603;32;20161;-83
2022/11/29 12:13:18;;;;;;;;;;;20.20;66.50;;;;;;4445881;32;20395;-83
2022/11/29 12:15:46;;;;;;;;;;;20.10;66.30;;;;;;4444804;32;19966;-84
2022/11/29 12:18:36;;;;;;;;;;;20.10;66.20;;;;;;4445802;32;19979;-83
2022/11/29 12:21:07;;;;;;;;;;;20.10;66.20;;;;;;4439790;32;19982;-84
2022/11/29 12:23:33;;;;;;;;;;;20.10;66.10;;;;;;4445882;32;20400;-78
2022/11/29 12:26:10;;;;;;;;;;;20.20;66.00;;;;;;4445709;32;19966;-80
2022/11/29 12:28:39;;;;;;;;;;;20.20;65.90;;;;;;4445815;32;20438;-81
2022/11/29 12:31:24;;;;;;;;;;;20.20;66.00;;;;;;4445652;32;20045;-79
2022/11/29 12:34:03;;;;;;;;;;;20.20;65.90;;;;;;4445642;32;20323;-80
2022/11/29 12:36:41;;;;;;;;;;;20.20;65.60;;;;;;4445510;32;19974;-79
2022/11/29 12:39:14;;;;;;;;;;;20.20;65.40;;;;;;4445585;32;19974;-78
2022/11/29 12:41:40;;;;;;;;;;;20.20;65.30;;;;;;4445459;32;20041;-77
2022/11/29 12:44:12;;;;;;;;;;;20.20;65.20;;;;;;4445388;32;19975;-77
2022/11/29 12:46:38;;;;;;;;;;;20.20;65.20;;;;;;4445486;32;20411;-80
2022/11/29 12:49:34;;;;;;;;;;;20.30;66.00;;;;;;4445620;32;20380;-79
2022/11/29 12:52:21;;;;;;;;;;;20.30;65.10;;;;;;4403079;32;20393;-74
2022/11/29 12:54:55;;;;;;;;;;;20.40;65.10;;;;;;4445882;32;19989;-82
2022/11/29 12:57:24;;;;;;;;;;;20.30;65.10;;;;;;4445427;32;20013;-79
2022/11/29 13:00:08;;;;;;;;;;;20.40;65.10;;;;;;4445432;32;20388;-80
2022/11/29 13:02:37;;;;;;;;;;;20.40;65.10;;;;;;4445723;32;20056;-80
2022/11/29 13:05:21;;;;;;;;;;;20.40;65.20;;;;;;4445390;32;19989;-78
2022/11/29 13:07:58;;;;;;;;;;;20.40;65.30;;;;;;4431307;32;19993;-79
2022/11/29 13:10:24;;;;;;;;;;;20.40;65.20;;;;;;4445686;32;19978;-80
2022/11/29 13:12:55;;;;;;;;;;;20.50;65.30;;;;;;4448258;32;19962;-77
2022/11/29 13:15:41;;;;;;;;;;;20.50;65.30;;;;;;4448356;32;20077;-78
2022/11/29 13:18:13;;;;;;;;;;;20.50;65.40;;;;;;4423995;32;20415;-77
2022/11/29 13:20:46;;;;;;;;;;;20.50;65.50;;;;;;4448085;32;19987;-78
2022/11/29 13:23:18;;;;;;;;;;;20.50;65.60;;;;;;4448566;32;20412;-77
2022/11/29 13:25:50;;;;;;;;;;;20.50;65.60;;;;;;4448095;32;20326;-78
2022/11/29 13:28:15;;;;;;;;;;;20.50;65.70;;;;;;4448172;32;20069;-77
2022/11/29 13:30:41;;;;;;;;;;;20.50;65.70;;;;;;4447946;32;20080;-76
2022/11/29 13:33:19;;;;;;;;;;;20.50;65.70;;;;;;4447876;32;20096;-77
2022/11/29 13:35:45;;;;;;;;;;;20.50;65.70;;;;;;4447707;32;20087;-78
2022/11/29 13:38:10;;;;;;;;;;;20.50;65.70;;;;;;4448213;32;19983;-77
2022/11/29 13:40:39;;;;;;;;;;;20.50;65.80;;;;;;4448257;32;19962;-77
2022/11/29 13:43:28;;;;;;;;;;;20.50;65.80;;;;;;4447914;32;20096;-79
2022/11/29 13:46:00;;;;;;;;;;;20.50;65.80;;;;;;4441802;32;19982;-78
2022/11/29 13:48:55;;;;;;;;;;;20.50;66.70;;;;;;4448417;32;20018;-76
2022/11/29 13:51:20;;;;;;;;;;;20.50;65.90;;;;;;4437561;32;19978;-77
2022/11/29 13:53:46;;;;;;;;;;;20.50;65.90;;;;;;4447823;32;19977;-76
2022/11/29 13:56:28;;;;;;;;;;;20.40;65.80;;;;;;4447735;32;20029;-76
2022/11/29 13:58:54;;;;;;;;;;;20.50;65.90;;;;;;4447263;32;20171;-77
2022/11/29 14:01:21;;;;;;;;;;;20.50;65.80;;;;;;4447870;32;19974;-77
2022/11/29 14:03:59;;;;;;;;;;;20.40;65.70;;;;;;4447417;32;19975;-79
2022/11/29 14:06:35;;;;;;;;;;;20.50;65.70;;;;;;4447783;32;19982;-77
2022/11/29 14:09:12;;;;;;;;;;;20.50;65.60;;;;;;4447761;32;20038;-77
2022/11/29 14:11:41;;;;;;;;;;;20.50;65.50;;;;;;4447487;32;19986;-78
2022/11/29 14:14:25;;;;;;;;;;;20.50;65.40;;;;;;4447657;32;19978;-70
2022/11/29 14:16:53;;;;;;;;;;;20.50;65.40;;;;;;4447884;32;20409;-82
2022/11/29 14:19:22;;;;;;;;;;;20.50;65.20;;;;;;4447587;32;20052;-78
2022/11/29 14:22:06;;;;;;;;;;;20.50;65.10;;;;;;4447641;32;19978;-77
2022/11/29 14:24:34;;;;;;;;;;;20.50;65.20;;;;;;4447209;32;19985;-77
2022/11/29 14:27:11;;;;;;;;;;;20.50;65.20;;;;;;4447398;32;20391;-77
2022/11/29 14:29:52;;;;;;;;;;;20.50;65.10;;;;;;4447502;32;19994;-76
2022/11/29 14:32:33;;;;;;;;;;;20.50;65.10;;;;;;4446997;32;20045;-77
2022/11/29 14:35:02;;;;;;;;;;;20.60;65.20;;;;;;4447224;32;20056;-76
2022/11/29 14:37:46;;;;;;;;;;;20.60;65.20;;;;;;4446683;32;20401;-78
2022/11/29 14:40:35;;;;;;;;;;;20.60;65.20;;;;;;4446339;32;20050;-78
2022/11/29 14:43:01;;;;;;;;;;;20.60;65.20;;;;;;4424824;32;20462;-78
2022/11/29 14:45:29;;;;;;;;;;;20.60;65.20;;;;;;4447073;32;19971;-80
2022/11/29 14:47:56;;;;;;;;;;;20.60;65.10;;;;;;4447101;32;20026;-79
2022/11/29 14:50:28;;;;;;;;;;;20.60;65.10;;;;;;4446670;32;19963;-82